Terminal Aerodrome Forecast
Issued by NWS

Home | Current Version | Previous Version | Text Only | Print | Product List | Glossary On
Versions: 1 2 3 4 5 6 7 8 9 10 11 12 13 14 15 16 17
000
FTUS42 KTAE 211700
TAFDHN
TAF
KDHN 211720Z 2118/2218 06008KT 6SM BR OVC008
     FM220200 08005KT 6SM BR VCSH OVC007
     FM220700 09004KT 2SM BR VCSH OVC003
     FM221400 09006KT 6SM -RA BR OVC004=

USA.gov is the U.S. government's official web portal to all federal, state and local government web resources and services.